sensor_id;sensor_type;location;lat;lon;timestamp;P1;durP1;ratioP1;P2;durP2;ratioP2
16119;SDS011;12670;53.502;10.252;2023-05-10T00:01:43;7.90;;;3.20;;
16119;SDS011;12670;53.502;10.252;2023-05-10T00:04:46;6.63;;;3.27;;
16119;SDS011;12670;53.502;10.252;2023-05-10T00:07:48;5.23;;;3.00;;
16119;SDS011;12670;53.502;10.252;2023-05-10T00:10:51;5.53;;;3.50;;
16119;SDS011;12670;53.502;10.252;2023-05-10T00:13:55;4.30;;;2.90;;
16119;SDS011;12670;53.502;10.252;2023-05-10T00:16:58;7.17;;;3.30;;
16119;SDS011;12670;53.502;10.252;2023-05-10T00:20:01;5.20;;;3.10;;
16119;SDS011;12670;53.502;10.252;2023-05-10T00:23:06;5.47;;;3.30;;
16119;SDS011;12670;53.502;10.252;2023-05-10T00:26:08;10.57;;;3.33;;
16119;SDS011;12670;53.502;10.252;2023-05-10T00:29:12;8.73;;;3.57;;
16119;SDS011;12670;53.502;10.252;2023-05-10T00:32:15;4.80;;;3.07;;
16119;SDS011;12670;53.502;10.252;2023-05-10T00:35:18;5.43;;;3.20;;
16119;SDS011;12670;53.502;10.252;2023-05-10T00:38:21;6.40;;;3.27;;
16119;SDS011;12670;53.502;10.252;2023-05-10T00:41:23;10.20;;;3.27;;
16119;SDS011;12670;53.502;10.252;2023-05-10T00:44:27;6.60;;;3.67;;
16119;SDS011;12670;53.502;10.252;2023-05-10T00:47:30;5.60;;;2.87;;
16119;SDS011;12670;53.502;10.252;2023-05-10T00:50:34;4.97;;;2.93;;
16119;SDS011;12670;53.502;10.252;2023-05-10T00:53:36;5.67;;;3.10;;
16119;SDS011;12670;53.502;10.252;2023-05-10T00:56:39;8.03;;;3.00;;
16119;SDS011;12670;53.502;10.252;2023-05-10T00:59:44;8.43;;;2.90;;
16119;SDS011;12670;53.502;10.252;2023-05-10T01:02:47;6.37;;;3.13;;
16119;SDS011;12670;53.502;10.252;2023-05-10T01:05:50;7.20;;;3.20;;
16119;SDS011;12670;53.502;10.252;2023-05-10T01:08:53;4.70;;;3.40;;
16119;SDS011;12670;53.502;10.252;2023-05-10T01:11:57;6.57;;;3.30;;
16119;SDS011;12670;53.502;10.252;2023-05-10T01:15:02;5.63;;;2.97;;
16119;SDS011;12670;53.502;10.252;2023-05-10T01:18:06;10.90;;;3.67;;
16119;SDS011;12670;53.502;10.252;2023-05-10T01:21:14;6.83;;;3.43;;
16119;SDS011;12670;53.502;10.252;2023-05-10T01:24:31;7.63;;;3.30;;
16119;SDS011;12670;53.502;10.252;2023-05-10T01:28:13;9.20;;;3.43;;
16119;SDS011;12670;53.502;10.252;2023-05-10T01:35:17;7.83;;;3.60;;
16119;SDS011;12670;53.502;10.252;2023-05-10T01:38:26;5.63;;;3.40;;
16119;SDS011;12670;53.502;10.252;2023-05-10T01:41:36;5.30;;;3.30;;
16119;SDS011;12670;53.502;10.252;2023-05-10T01:44:49;4.63;;;3.00;;
16119;SDS011;12670;53.502;10.252;2023-05-10T01:48:04;8.67;;;3.53;;
16119;SDS011;12670;53.502;10.252;2023-05-10T01:51:10;7.93;;;3.30;;
16119;SDS011;12670;53.502;10.252;2023-05-10T01:54:13;7.00;;;3.00;;
16119;SDS011;12670;53.502;10.252;2023-05-10T01:57:19;7.90;;;3.40;;
16119;SDS011;12670;53.502;10.252;2023-05-10T02:00:24;8.30;;;3.43;;
16119;SDS011;12670;53.502;10.252;2023-05-10T02:03:28;6.37;;;3.37;;
16119;SDS011;12670;53.502;10.252;2023-05-10T02:06:34;5.70;;;3.03;;
16119;SDS011;12670;53.502;10.252;2023-05-10T02:09:40;7.27;;;3.50;;
16119;SDS011;12670;53.502;10.252;2023-05-10T02:12:48;7.80;;;3.27;;
16119;SDS011;12670;53.502;10.252;2023-05-10T02:15:53;7.83;;;3.30;;
16119;SDS011;12670;53.502;10.252;2023-05-10T02:18:56;7.53;;;3.50;;
16119;SDS011;12670;53.502;10.252;2023-05-10T02:22:02;6.47;;;3.43;;
16119;SDS011;12670;53.502;10.252;2023-05-10T02:25:06;10.27;;;3.47;;
16119;SDS011;12670;53.502;10.252;2023-05-10T02:28:10;7.17;;;3.50;;
16119;SDS011;12670;53.502;10.252;2023-05-10T02:31:15;5.67;;;3.33;;
16119;SDS011;12670;53.502;10.252;2023-05-10T02:34:18;6.30;;;3.20;;
16119;SDS011;12670;53.502;10.252;2023-05-10T02:37:23;4.97;;;3.30;;
16119;SDS011;12670;53.502;10.252;2023-05-10T02:40:27;5.97;;;3.27;;
16119;SDS011;12670;53.502;10.252;2023-05-10T02:43:32;6.17;;;3.30;;
16119;SDS011;12670;53.502;10.252;2023-05-10T02:46:35;6.87;;;3.40;;
16119;SDS011;12670;53.502;10.252;2023-05-10T02:49:39;9.77;;;3.60;;
16119;SDS011;12670;53.502;10.252;2023-05-10T02:52:44;14.83;;;3.57;;
16119;SDS011;12670;53.502;10.252;2023-05-10T02:55:50;8.63;;;3.30;;
16119;SDS011;12670;53.502;10.252;2023-05-10T02:58:56;6.77;;;3.37;;
16119;SDS011;12670;53.502;10.252;2023-05-10T03:01:58;9.03;;;3.30;;
16119;SDS011;12670;53.502;10.252;2023-05-10T03:05:02;7.63;;;3.63;;
16119;SDS011;12670;53.502;10.252;2023-05-10T03:08:06;8.20;;;3.50;;
16119;SDS011;12670;53.502;10.252;2023-05-10T03:11:14;6.60;;;3.50;;
16119;SDS011;12670;53.502;10.252;2023-05-10T03:14:29;6.23;;;3.50;;
16119;SDS011;12670;53.502;10.252;2023-05-10T03:17:45;4.73;;;3.17;;
16119;SDS011;12670;53.502;10.252;2023-05-10T03:20:51;7.33;;;3.50;;
16119;SDS011;12670;53.502;10.252;2023-05-10T03:24:02;6.27;;;3.27;;
16119;SDS011;12670;53.502;10.252;2023-05-10T03:27:09;6.73;;;3.37;;
16119;SDS011;12670;53.502;10.252;2023-05-10T03:30:12;6.00;;;3.73;;
16119;SDS011;12670;53.502;10.252;2023-05-10T03:33:16;9.33;;;3.40;;
16119;SDS011;12670;53.502;10.252;2023-05-10T03:36:19;8.17;;;3.13;;
16119;SDS011;12670;53.502;10.252;2023-05-10T03:39:23;8.33;;;3.80;;
16119;SDS011;12670;53.502;10.252;2023-05-10T03:42:26;6.30;;;3.60;;
16119;SDS011;12670;53.502;10.252;2023-05-10T03:45:28;8.57;;;3.47;;
16119;SDS011;12670;53.502;10.252;2023-05-10T03:48:32;9.33;;;3.60;;
16119;SDS011;12670;53.502;10.252;2023-05-10T03:51:34;5.13;;;3.73;;
16119;SDS011;12670;53.502;10.252;2023-05-10T03:54:38;6.63;;;3.80;;
16119;SDS011;12670;53.502;10.252;2023-05-10T03:57:41;6.67;;;3.57;;
16119;SDS011;12670;53.502;10.252;2023-05-10T04:00:44;7.40;;;3.50;;
16119;SDS011;12670;53.502;10.252;2023-05-10T04:03:47;8.20;;;3.80;;
16119;SDS011;12670;53.502;10.252;2023-05-10T04:06:49;5.67;;;3.63;;
16119;SDS011;12670;53.502;10.252;2023-05-10T04:09:53;7.87;;;3.40;;
16119;SDS011;12670;53.502;10.252;2023-05-10T04:12:56;10.03;;;3.90;;
16119;SDS011;12670;53.502;10.252;2023-05-10T04:15:59;8.40;;;3.70;;
16119;SDS011;12670;53.502;10.252;2023-05-10T04:19:01;6.00;;;3.60;;
16119;SDS011;12670;53.502;10.252;2023-05-10T04:22:04;7.10;;;3.80;;
16119;SDS011;12670;53.502;10.252;2023-05-10T04:25:09;9.13;;;3.97;;
16119;SDS011;12670;53.502;10.252;2023-05-10T04:28:11;6.57;;;3.63;;
16119;SDS011;12670;53.502;10.252;2023-05-10T04:31:14;10.50;;;3.73;;
16119;SDS011;12670;53.502;10.252;2023-05-10T04:34:17;7.40;;;4.33;;
16119;SDS011;12670;53.502;10.252;2023-05-10T04:37:19;6.30;;;3.93;;
16119;SDS011;12670;53.502;10.252;2023-05-10T04:40:25;6.17;;;3.63;;
16119;SDS011;12670;53.502;10.252;2023-05-10T04:43:28;8.10;;;3.83;;
16119;SDS011;12670;53.502;10.252;2023-05-10T04:46:30;7.03;;;3.77;;
16119;SDS011;12670;53.502;10.252;2023-05-10T04:49:33;9.73;;;3.50;;
16119;SDS011;12670;53.502;10.252;2023-05-10T04:52:36;8.23;;;3.90;;
16119;SDS011;12670;53.502;10.252;2023-05-10T04:55:40;5.90;;;4.03;;
16119;SDS011;12670;53.502;10.252;2023-05-10T04:58:42;9.23;;;3.50;;
16119;SDS011;12670;53.502;10.252;2023-05-10T05:01:45;8.73;;;3.80;;
16119;SDS011;12670;53.502;10.252;2023-05-10T05:04:47;6.73;;;3.63;;
16119;SDS011;12670;53.502;10.252;2023-05-10T05:07:50;9.77;;;4.33;;
16119;SDS011;12670;53.502;10.252;2023-05-10T05:10:54;9.03;;;3.40;;
16119;SDS011;12670;53.502;10.252;2023-05-10T05:13:57;5.17;;;3.83;;
16119;SDS011;12670;53.502;10.252;2023-05-10T05:17:01;6.77;;;4.07;;
16119;SDS011;12670;53.502;10.252;2023-05-10T05:20:03;9.47;;;3.60;;
16119;SDS011;12670;53.502;10.252;2023-05-10T05:23:07;7.57;;;4.30;;
16119;SDS011;12670;53.502;10.252;2023-05-10T05:26:11;5.80;;;3.90;;
16119;SDS011;12670;53.502;10.252;2023-05-10T05:29:14;8.77;;;3.50;;
16119;SDS011;12670;53.502;10.252;2023-05-10T05:32:16;7.50;;;3.50;;
16119;SDS011;12670;53.502;10.252;2023-05-10T05:35:19;7.57;;;4.00;;
16119;SDS011;12670;53.502;10.252;2023-05-10T05:38:22;6.27;;;3.73;;
16119;SDS011;12670;53.502;10.252;2023-05-10T05:41:26;6.70;;;3.60;;
16119;SDS011;12670;53.502;10.252;2023-05-10T05:44:28;7.73;;;3.83;;
16119;SDS011;12670;53.502;10.252;2023-05-10T05:47:31;9.53;;;4.10;;
16119;SDS011;12670;53.502;10.252;2023-05-10T05:50:34;9.13;;;3.80;;
16119;SDS011;12670;53.502;10.252;2023-05-10T05:53:36;8.83;;;3.83;;
16119;SDS011;12670;53.502;10.252;2023-05-10T05:56:40;7.03;;;3.90;;
16119;SDS011;12670;53.502;10.252;2023-05-10T05:59:43;9.00;;;3.90;;
16119;SDS011;12670;53.502;10.252;2023-05-10T06:02:45;10.57;;;3.83;;
16119;SDS011;12670;53.502;10.252;2023-05-10T06:05:49;7.10;;;3.70;;
16119;SDS011;12670;53.502;10.252;2023-05-10T06:08:51;5.13;;;3.50;;
16119;SDS011;12670;53.502;10.252;2023-05-10T06:11:55;5.77;;;3.83;;
16119;SDS011;12670;53.502;10.252;2023-05-10T06:14:58;6.33;;;3.73;;
16119;SDS011;12670;53.502;10.252;2023-05-10T06:18:01;4.73;;;3.93;;
16119;SDS011;12670;53.502;10.252;2023-05-10T06:21:04;7.13;;;3.53;;
16119;SDS011;12670;53.502;10.252;2023-05-10T06:24:07;9.17;;;3.40;;
16119;SDS011;12670;53.502;10.252;2023-05-10T06:27:11;5.07;;;3.80;;
16119;SDS011;12670;53.502;10.252;2023-05-10T06:30:13;4.33;;;3.37;;
16119;SDS011;12670;53.502;10.252;2023-05-10T06:33:16;5.90;;;3.70;;
16119;SDS011;12670;53.502;10.252;2023-05-10T06:36:19;5.73;;;3.40;;
16119;SDS011;12670;53.502;10.252;2023-05-10T06:39:21;6.30;;;4.10;;
16119;SDS011;12670;53.502;10.252;2023-05-10T06:42:25;11.93;;;4.10;;
16119;SDS011;12670;53.502;10.252;2023-05-10T06:45:28;7.10;;;3.90;;
16119;SDS011;12670;53.502;10.252;2023-05-10T06:48:31;7.60;;;3.33;;
16119;SDS011;12670;53.502;10.252;2023-05-10T06:51:33;9.40;;;3.60;;
16119;SDS011;12670;53.502;10.252;2023-05-10T06:54:36;5.33;;;3.57;;
16119;SDS011;12670;53.502;10.252;2023-05-10T06:57:40;4.57;;;3.23;;
16119;SDS011;12670;53.502;10.252;2023-05-10T07:00:42;4.73;;;3.30;;
16119;SDS011;12670;53.502;10.252;2023-05-10T07:03:46;9.70;;;3.50;;
16119;SDS011;12670;53.502;10.252;2023-05-10T07:06:49;6.33;;;3.53;;
16119;SDS011;12670;53.502;10.252;2023-05-10T07:09:51;9.47;;;3.57;;
16119;SDS011;12670;53.502;10.252;2023-05-10T07:12:55;11.10;;;3.80;;
16119;SDS011;12670;53.502;10.252;2023-05-10T07:15:58;7.63;;;4.10;;
16119;SDS011;12670;53.502;10.252;2023-05-10T07:19:03;4.77;;;3.10;;
16119;SDS011;12670;53.502;10.252;2023-05-10T07:22:06;9.00;;;3.73;;
16119;SDS011;12670;53.502;10.252;2023-05-10T07:25:09;7.37;;;3.50;;
16119;SDS011;12670;53.502;10.252;2023-05-10T07:28:13;4.90;;;3.63;;
16119;SDS011;12670;53.502;10.252;2023-05-10T07:31:16;5.47;;;3.63;;
16119;SDS011;12670;53.502;10.252;2023-05-10T07:34:18;7.97;;;3.67;;
16119;SDS011;12670;53.502;10.252;2023-05-10T07:37:21;8.00;;;3.60;;
16119;SDS011;12670;53.502;10.252;2023-05-10T07:40:24;6.73;;;3.83;;
16119;SDS011;12670;53.502;10.252;2023-05-10T07:43:28;7.67;;;4.37;;
16119;SDS011;12670;53.502;10.252;2023-05-10T07:46:30;4.73;;;3.50;;
16119;SDS011;12670;53.502;10.252;2023-05-10T07:49:33;7.83;;;3.43;;
16119;SDS011;12670;53.502;10.252;2023-05-10T07:52:36;6.93;;;3.73;;
16119;SDS011;12670;53.502;10.252;2023-05-10T07:55:39;7.73;;;3.80;;
16119;SDS011;12670;53.502;10.252;2023-05-10T07:58:43;6.13;;;3.83;;
16119;SDS011;12670;53.502;10.252;2023-05-10T08:01:45;6.00;;;3.33;;
16119;SDS011;12670;53.502;10.252;2023-05-10T08:04:48;8.73;;;3.47;;
16119;SDS011;12670;53.502;10.252;2023-05-10T08:07:51;7.77;;;3.57;;
16119;SDS011;12670;53.502;10.252;2023-05-10T08:10:53;5.63;;;3.43;;
16119;SDS011;12670;53.502;10.252;2023-05-10T08:13:57;6.47;;;3.40;;
16119;SDS011;12670;53.502;10.252;2023-05-10T08:17:00;5.13;;;3.40;;
16119;SDS011;12670;53.502;10.252;2023-05-10T08:20:03;7.07;;;3.50;;
16119;SDS011;12670;53.502;10.252;2023-05-10T08:23:06;7.13;;;3.57;;
16119;SDS011;12670;53.502;10.252;2023-05-10T08:26:09;11.13;;;6.07;;
16119;SDS011;12670;53.502;10.252;2023-05-10T08:29:13;24.77;;;13.00;;
16119;SDS011;12670;53.502;10.252;2023-05-10T08:32:16;10.77;;;4.10;;
16119;SDS011;12670;53.502;10.252;2023-05-10T08:35:19;9.90;;;5.10;;
16119;SDS011;12670;53.502;10.252;2023-05-10T08:38:22;9.33;;;5.17;;
16119;SDS011;12670;53.502;10.252;2023-05-10T08:41:25;7.87;;;4.20;;
16119;SDS011;12670;53.502;10.252;2023-05-10T08:44:29;9.57;;;4.23;;
16119;SDS011;12670;53.502;10.252;2023-05-10T08:47:33;9.37;;;3.90;;
16119;SDS011;12670;53.502;10.252;2023-05-10T08:50:39;8.97;;;3.90;;
16119;SDS011;12670;53.502;10.252;2023-05-10T08:53:43;10.10;;;3.30;;
16119;SDS011;12670;53.502;10.252;2023-05-10T08:56:46;6.67;;;3.67;;
16119;SDS011;12670;53.502;10.252;2023-05-10T08:59:51;9.73;;;3.97;;
16119;SDS011;12670;53.502;10.252;2023-05-10T09:02:54;6.90;;;3.97;;
16119;SDS011;12670;53.502;10.252;2023-05-10T09:05:57;5.50;;;3.93;;
16119;SDS011;12670;53.502;10.252;2023-05-10T09:09:00;12.90;;;4.47;;
16119;SDS011;12670;53.502;10.252;2023-05-10T09:12:04;7.20;;;4.23;;
16119;SDS011;12670;53.502;10.252;2023-05-10T09:15:10;6.43;;;4.10;;
16119;SDS011;12670;53.502;10.252;2023-05-10T09:18:16;10.00;;;4.23;;
16119;SDS011;12670;53.502;10.252;2023-05-10T09:21:19;14.60;;;7.53;;
16119;SDS011;12670;53.502;10.252;2023-05-10T09:24:24;11.27;;;4.80;;
16119;SDS011;12670;53.502;10.252;2023-05-10T09:27:27;9.97;;;5.23;;
16119;SDS011;12670;53.502;10.252;2023-05-10T09:30:31;12.77;;;5.00;;
16119;SDS011;12670;53.502;10.252;2023-05-10T09:33:43;8.03;;;4.40;;
16119;SDS011;12670;53.502;10.252;2023-05-10T09:36:52;12.30;;;4.00;;
16119;SDS011;12670;53.502;10.252;2023-05-10T09:39:57;8.30;;;4.83;;
16119;SDS011;12670;53.502;10.252;2023-05-10T09:43:00;12.33;;;3.80;;
16119;SDS011;12670;53.502;10.252;2023-05-10T09:46:09;8.20;;;3.90;;
16119;SDS011;12670;53.502;10.252;2023-05-10T09:49:14;8.87;;;4.17;;
16119;SDS011;12670;53.502;10.252;2023-05-10T09:52:17;6.77;;;4.10;;
16119;SDS011;12670;53.502;10.252;2023-05-10T09:55:20;7.20;;;4.43;;
16119;SDS011;12670;53.502;10.252;2023-05-10T09:58:24;5.90;;;3.80;;
16119;SDS011;12670;53.502;10.252;2023-05-10T10:01:28;10.23;;;4.00;;
16119;SDS011;12670;53.502;10.252;2023-05-10T10:04:31;5.47;;;4.30;;
16119;SDS011;12670;53.502;10.252;2023-05-10T10:07:34;8.70;;;4.30;;
16119;SDS011;12670;53.502;10.252;2023-05-10T10:10:37;9.13;;;4.63;;
16119;SDS011;12670;53.502;10.252;2023-05-10T10:13:41;8.07;;;4.77;;
16119;SDS011;12670;53.502;10.252;2023-05-10T10:16:45;7.70;;;4.23;;
16119;SDS011;12670;53.502;10.252;2023-05-10T10:20:07;6.60;;;4.40;;
16119;SDS011;12670;53.502;10.252;2023-05-10T10:23:12;7.40;;;4.87;;
16119;SDS011;12670;53.502;10.252;2023-05-10T10:26:18;6.50;;;4.67;;
16119;SDS011;12670;53.502;10.252;2023-05-10T10:29:23;10.27;;;5.00;;
16119;SDS011;12670;53.502;10.252;2023-05-10T10:32:33;10.13;;;4.77;;
16119;SDS011;12670;53.502;10.252;2023-05-10T10:35:46;6.77;;;5.27;;
16119;SDS011;12670;53.502;10.252;2023-05-10T10:38:59;7.93;;;5.50;;
16119;SDS011;12670;53.502;10.252;2023-05-10T10:42:04;9.53;;;6.13;;
16119;SDS011;12670;53.502;10.252;2023-05-10T10:45:13;10.03;;;6.47;;
16119;SDS011;12670;53.502;10.252;2023-05-10T10:48:21;9.30;;;7.00;;
16119;SDS011;12670;53.502;10.252;2023-05-10T10:51:25;8.87;;;6.93;;
16119;SDS011;12670;53.502;10.252;2023-05-10T10:54:32;10.83;;;7.33;;
16119;SDS011;12670;53.502;10.252;2023-05-10T10:57:45;8.73;;;6.93;;
16119;SDS011;12670;53.502;10.252;2023-05-10T11:00:49;16.23;;;9.10;;
16119;SDS011;12670;53.502;10.252;2023-05-10T11:07:20;15.03;;;9.53;;
16119;SDS011;12670;53.502;10.252;2023-05-10T11:10:24;12.33;;;8.90;;
16119;SDS011;12670;53.502;10.252;2023-05-10T11:13:28;12.37;;;8.73;;
16119;SDS011;12670;53.502;10.252;2023-05-10T11:16:40;12.90;;;8.00;;
16119;SDS011;12670;53.502;10.252;2023-05-10T11:23:11;12.27;;;7.87;;
16119;SDS011;12670;53.502;10.252;2023-05-10T11:26:17;16.53;;;8.10;;
16119;SDS011;12670;53.502;10.252;2023-05-10T11:29:20;9.20;;;6.90;;
16119;SDS011;12670;53.502;10.252;2023-05-10T11:32:22;11.30;;;7.00;;
16119;SDS011;12670;53.502;10.252;2023-05-10T11:35:27;10.37;;;7.33;;
16119;SDS011;12670;53.502;10.252;2023-05-10T11:38:30;11.13;;;7.03;;
16119;SDS011;12670;53.502;10.252;2023-05-10T11:41:35;13.50;;;7.20;;
16119;SDS011;12670;53.502;10.252;2023-05-10T11:44:37;10.87;;;7.77;;
16119;SDS011;12670;53.502;10.252;2023-05-10T11:47:40;13.13;;;7.77;;
16119;SDS011;12670;53.502;10.252;2023-05-10T11:50:45;11.27;;;8.20;;
16119;SDS011;12670;53.502;10.252;2023-05-10T11:53:49;12.77;;;8.93;;
16119;SDS011;12670;53.502;10.252;2023-05-10T11:56:52;10.70;;;7.70;;
16119;SDS011;12670;53.502;10.252;2023-05-10T11:59:56;12.83;;;8.30;;
16119;SDS011;12670;53.502;10.252;2023-05-10T12:03:00;10.40;;;7.43;;
16119;SDS011;12670;53.502;10.252;2023-05-10T12:06:05;14.37;;;8.60;;
16119;SDS011;12670;53.502;10.252;2023-05-10T12:09:09;14.17;;;9.20;;
16119;SDS011;12670;53.502;10.252;2023-05-10T12:12:15;10.27;;;7.80;;
16119;SDS011;12670;53.502;10.252;2023-05-10T12:15:20;14.70;;;8.80;;
16119;SDS011;12670;53.502;10.252;2023-05-10T12:18:23;16.53;;;8.30;;
16119;SDS011;12670;53.502;10.252;2023-05-10T12:21:29;11.23;;;8.37;;
16119;SDS011;12670;53.502;10.252;2023-05-10T12:24:33;13.03;;;9.13;;
16119;SDS011;12670;53.502;10.252;2023-05-10T12:27:37;14.97;;;8.77;;
16119;SDS011;12670;53.502;10.252;2023-05-10T12:30:39;11.33;;;8.60;;
16119;SDS011;12670;53.502;10.252;2023-05-10T12:33:42;11.63;;;8.40;;
16119;SDS011;12670;53.502;10.252;2023-05-10T12:36:50;12.83;;;8.50;;
16119;SDS011;12670;53.502;10.252;2023-05-10T12:39:54;11.93;;;8.57;;
16119;SDS011;12670;53.502;10.252;2023-05-10T12:42:56;11.90;;;8.50;;
16119;SDS011;12670;53.502;10.252;2023-05-10T12:46:03;12.23;;;9.03;;
16119;SDS011;12670;53.502;10.252;2023-05-10T12:49:07;12.20;;;8.63;;
16119;SDS011;12670;53.502;10.252;2023-05-10T12:52:11;12.27;;;8.30;;
16119;SDS011;12670;53.502;10.252;2023-05-10T12:55:14;11.83;;;8.30;;
16119;SDS011;12670;53.502;10.252;2023-05-10T12:58:17;12.20;;;8.23;;
16119;SDS011;12670;53.502;10.252;2023-05-10T13:01:35;16.40;;;9.33;;
16119;SDS011;12670;53.502;10.252;2023-05-10T13:04:38;11.37;;;8.23;;
16119;SDS011;12670;53.502;10.252;2023-05-10T13:07:42;9.43;;;6.97;;
16119;SDS011;12670;53.502;10.252;2023-05-10T13:10:46;9.70;;;7.00;;
16119;SDS011;12670;53.502;10.252;2023-05-10T13:13:48;7.80;;;5.90;;
16119;SDS011;12670;53.502;10.252;2023-05-10T13:16:51;7.63;;;5.50;;
16119;SDS011;12670;53.502;10.252;2023-05-10T13:19:54;7.57;;;5.77;;
16119;SDS011;12670;53.502;10.252;2023-05-10T13:22:58;10.93;;;6.47;;
16119;SDS011;12670;53.502;10.252;2023-05-10T13:26:00;8.33;;;6.43;;
16119;SDS011;12670;53.502;10.252;2023-05-10T13:29:03;10.73;;;6.67;;
16119;SDS011;12670;53.502;10.252;2023-05-10T13:32:06;8.60;;;6.50;;
16119;SDS011;12670;53.502;10.252;2023-05-10T13:35:08;7.93;;;6.07;;
16119;SDS011;12670;53.502;10.252;2023-05-10T13:38:13;8.17;;;6.47;;
16119;SDS011;12670;53.502;10.252;2023-05-10T13:41:15;8.47;;;5.73;;
16119;SDS011;12670;53.502;10.252;2023-05-10T13:44:19;9.50;;;7.27;;
16119;SDS011;12670;53.502;10.252;2023-05-10T13:47:22;8.10;;;6.17;;
16119;SDS011;12670;53.502;10.252;2023-05-10T13:50:25;10.60;;;6.60;;
16119;SDS011;12670;53.502;10.252;2023-05-10T13:53:29;8.03;;;5.90;;
16119;SDS011;12670;53.502;10.252;2023-05-10T13:56:32;8.60;;;6.07;;
16119;SDS011;12670;53.502;10.252;2023-05-10T13:59:34;9.57;;;6.10;;
16119;SDS011;12670;53.502;10.252;2023-05-10T14:02:37;7.23;;;5.60;;
16119;SDS011;12670;53.502;10.252;2023-05-10T14:05:40;6.23;;;4.90;;
16119;SDS011;12670;53.502;10.252;2023-05-10T14:08:44;7.10;;;5.33;;
16119;SDS011;12670;53.502;10.252;2023-05-10T14:11:46;7.90;;;5.03;;
16119;SDS011;12670;53.502;10.252;2023-05-10T14:14:49;6.67;;;5.33;;
16119;SDS011;12670;53.502;10.252;2023-05-10T14:17:51;8.10;;;5.90;;
16119;SDS011;12670;53.502;10.252;2023-05-10T14:20:54;7.97;;;5.23;;
16119;SDS011;12670;53.502;10.252;2023-05-10T14:23:58;6.43;;;5.30;;
16119;SDS011;12670;53.502;10.252;2023-05-10T14:27:01;6.63;;;5.17;;
16119;SDS011;12670;53.502;10.252;2023-05-10T14:30:04;8.63;;;6.13;;
16119;SDS011;12670;53.502;10.252;2023-05-10T14:33:07;6.13;;;5.07;;
16119;SDS011;12670;53.502;10.252;2023-05-10T14:36:10;7.70;;;5.57;;
16119;SDS011;12670;53.502;10.252;2023-05-10T14:39:14;6.97;;;5.53;;
16119;SDS011;12670;53.502;10.252;2023-05-10T14:42:17;8.37;;;5.80;;
16119;SDS011;12670;53.502;10.252;2023-05-10T14:45:20;7.80;;;5.80;;
16119;SDS011;12670;53.502;10.252;2023-05-10T14:48:23;7.27;;;5.47;;
16119;SDS011;12670;53.502;10.252;2023-05-10T14:51:26;9.53;;;5.30;;
16119;SDS011;12670;53.502;10.252;2023-05-10T14:54:30;9.27;;;5.67;;
16119;SDS011;12670;53.502;10.252;2023-05-10T14:57:34;7.67;;;5.83;;
16119;SDS011;12670;53.502;10.252;2023-05-10T15:00:37;8.63;;;6.03;;
16119;SDS011;12670;53.502;10.252;2023-05-10T15:03:40;8.73;;;5.80;;
16119;SDS011;12670;53.502;10.252;2023-05-10T15:06:43;7.77;;;6.17;;
16119;SDS011;12670;53.502;10.252;2023-05-10T15:09:47;7.70;;;6.07;;
16119;SDS011;12670;53.502;10.252;2023-05-10T15:12:50;7.90;;;5.60;;
16119;SDS011;12670;53.502;10.252;2023-05-10T15:15:53;7.37;;;5.83;;
16119;SDS011;12670;53.502;10.252;2023-05-10T15:18:56;7.27;;;5.53;;
16119;SDS011;12670;53.502;10.252;2023-05-10T15:21:58;6.43;;;5.10;;
16119;SDS011;12670;53.502;10.252;2023-05-10T15:25:02;17.90;;;11.73;;
16119;SDS011;12670;53.502;10.252;2023-05-10T15:28:05;9.97;;;7.30;;
16119;SDS011;12670;53.502;10.252;2023-05-10T15:31:08;13.87;;;9.03;;
16119;SDS011;12670;53.502;10.252;2023-05-10T15:34:11;7.53;;;5.90;;
16119;SDS011;12670;53.502;10.252;2023-05-10T15:37:14;10.30;;;6.73;;
16119;SDS011;12670;53.502;10.252;2023-05-10T15:40:18;8.40;;;5.70;;
16119;SDS011;12670;53.502;10.252;2023-05-10T15:43:21;7.93;;;6.00;;
16119;SDS011;12670;53.502;10.252;2023-05-10T15:46:23;7.50;;;5.47;;
16119;SDS011;12670;53.502;10.252;2023-05-10T15:49:26;7.27;;;5.97;;
16119;SDS011;12670;53.502;10.252;2023-05-10T15:52:28;7.37;;;5.23;;
16119;SDS011;12670;53.502;10.252;2023-05-10T15:55:32;5.77;;;4.73;;
16119;SDS011;12670;53.502;10.252;2023-05-10T15:58:35;9.20;;;6.27;;
16119;SDS011;12670;53.502;10.252;2023-05-10T16:01:39;8.17;;;5.33;;
16119;SDS011;12670;53.502;10.252;2023-05-10T16:04:41;9.10;;;6.90;;
16119;SDS011;12670;53.502;10.252;2023-05-10T16:07:45;5.53;;;4.30;;
16119;SDS011;12670;53.502;10.252;2023-05-10T16:10:49;14.30;;;9.47;;
16119;SDS011;12670;53.502;10.252;2023-05-10T16:13:52;9.70;;;6.57;;
16119;SDS011;12670;53.502;10.252;2023-05-10T16:16:55;14.57;;;9.63;;
16119;SDS011;12670;53.502;10.252;2023-05-10T16:19:58;13.30;;;6.73;;
16119;SDS011;12670;53.502;10.252;2023-05-10T16:23:02;9.47;;;6.60;;
16119;SDS011;12670;53.502;10.252;2023-05-10T16:26:07;9.10;;;5.87;;
16119;SDS011;12670;53.502;10.252;2023-05-10T16:29:09;6.67;;;4.60;;
16119;SDS011;12670;53.502;10.252;2023-05-10T16:32:12;5.63;;;4.70;;
16119;SDS011;12670;53.502;10.252;2023-05-10T16:35:14;6.27;;;4.50;;
16119;SDS011;12670;53.502;10.252;2023-05-10T16:38:18;5.73;;;4.23;;
16119;SDS011;12670;53.502;10.252;2023-05-10T16:41:22;5.60;;;4.20;;
16119;SDS011;12670;53.502;10.252;2023-05-10T16:44:26;5.67;;;4.10;;
16119;SDS011;12670;53.502;10.252;2023-05-10T16:47:29;4.57;;;3.50;;
16119;SDS011;12670;53.502;10.252;2023-05-10T16:50:31;5.17;;;3.80;;
16119;SDS011;12670;53.502;10.252;2023-05-10T16:53:34;4.73;;;3.77;;
16119;SDS011;12670;53.502;10.252;2023-05-10T16:56:39;6.40;;;3.37;;
16119;SDS011;12670;53.502;10.252;2023-05-10T16:59:41;4.63;;;3.50;;
16119;SDS011;12670;53.502;10.252;2023-05-10T17:02:44;6.47;;;3.40;;
16119;SDS011;12670;53.502;10.252;2023-05-10T17:05:47;4.13;;;3.20;;
16119;SDS011;12670;53.502;10.252;2023-05-10T17:08:49;3.80;;;3.00;;
16119;SDS011;12670;53.502;10.252;2023-05-10T17:11:53;4.40;;;2.87;;
16119;SDS011;12670;53.502;10.252;2023-05-10T17:14:56;5.47;;;3.10;;
16119;SDS011;12670;53.502;10.252;2023-05-10T17:17:58;5.17;;;3.10;;
16119;SDS011;12670;53.502;10.252;2023-05-10T17:21:01;5.10;;;2.70;;
16119;SDS011;12670;53.502;10.252;2023-05-10T17:24:04;3.90;;;2.33;;
16119;SDS011;12670;53.502;10.252;2023-05-10T17:27:08;4.87;;;2.97;;
16119;SDS011;12670;53.502;10.252;2023-05-10T17:30:11;3.93;;;2.40;;
16119;SDS011;12670;53.502;10.252;2023-05-10T17:33:14;4.17;;;2.57;;
16119;SDS011;12670;53.502;10.252;2023-05-10T17:36:17;3.37;;;2.57;;
16119;SDS011;12670;53.502;10.252;2023-05-10T17:39:19;4.37;;;2.70;;
16119;SDS011;12670;53.502;10.252;2023-05-10T17:42:24;3.50;;;2.50;;
16119;SDS011;12670;53.502;10.252;2023-05-10T17:45:26;3.00;;;2.30;;
16119;SDS011;12670;53.502;10.252;2023-05-10T17:48:29;3.20;;;2.70;;
16119;SDS011;12670;53.502;10.252;2023-05-10T17:51:31;3.60;;;2.90;;
16119;SDS011;12670;53.502;10.252;2023-05-10T17:54:34;4.23;;;2.80;;
16119;SDS011;12670;53.502;10.252;2023-05-10T17:57:38;3.80;;;3.10;;
16119;SDS011;12670;53.502;10.252;2023-05-10T18:00:41;4.40;;;3.20;;
16119;SDS011;12670;53.502;10.252;2023-05-10T18:03:43;4.60;;;3.27;;
16119;SDS011;12670;53.502;10.252;2023-05-10T18:06:46;6.43;;;3.00;;
16119;SDS011;12670;53.502;10.252;2023-05-10T18:09:49;4.67;;;3.20;;
16119;SDS011;12670;53.502;10.252;2023-05-10T18:12:53;6.57;;;3.63;;
16119;SDS011;12670;53.502;10.252;2023-05-10T18:15:55;4.53;;;3.37;;
16119;SDS011;12670;53.502;10.252;2023-05-10T18:18:58;4.63;;;3.03;;